Time;durP1;ratioP1;P1;durP2;ratioP2;P2;SDS_P1;SDS_P2;PMS_P1;PMS_P2;Temp;Humidity;BMP_temperature;BMP_pressure;BME280_temperature;BME280_humidity;BME280_pressure;Samples;Min_cycle;Max_cycle;Signal;HPM_P1;HPM_P2
2022/05/29 00:01:43;;;;;;;3.33;1.35;;;22.70;48.20;;;;;;5092802;28;20429;-65
2022/05/29 00:04:09;;;;;;;3.20;1.60;;;22.70;48.20;;;;;;5092631;28;20774;-65
2022/05/29 00:06:39;;;;;;;3.35;1.70;;;22.70;48.40;;;;;;5092683;28;20416;-65
2022/05/29 00:09:05;;;;;;;4.45;1.65;;;22.70;48.70;;;;;;5092285;28;20378;-65
2022/05/29 00:11:32;;;;;;;2.17;1.20;;;22.70;48.60;;;;;;5092041;28;20423;-65
2022/05/29 00:14:00;;;;;;;3.50;1.45;;;22.70;48.70;;;;;;5092407;28;20382;-65
2022/05/29 00:16:27;;;;;;;3.97;1.57;;;22.70;48.70;;;;;;5092563;28;20389;-65
2022/05/29 00:18:53;;;;;;;3.40;1.50;;;22.70;48.70;;;;;;5092394;28;20390;-65
2022/05/29 00:21:19;;;;;;;3.40;1.40;;;22.70;49.00;;;;;;5090561;28;20746;-65
2022/05/29 00:23:49;;;;;;;5.75;1.50;;;22.70;48.90;;;;;;5090981;28;20422;-65
2022/05/29 00:26:18;;;;;;;2.35;1.52;;;22.70;48.80;;;;;;5092303;28;20817;-65
2022/05/29 00:28:44;;;;;;;3.63;1.37;;;22.60;48.70;;;;;;5092197;28;20378;-65
2022/05/29 00:31:11;;;;;;;2.60;1.30;;;22.60;48.50;;;;;;5091795;28;20904;-65
2022/05/29 00:33:38;;;;;;;3.78;1.58;;;22.60;48.50;;;;;;5091205;28;20386;-65
2022/05/29 00:36:04;;;;;;;2.80;1.40;;;22.60;48.40;;;;;;5092112;28;20393;-65
2022/05/29 00:38:37;;;;;;;2.10;1.55;;;22.60;48.40;;;;;;5092077;28;20465;-65
2022/05/29 00:41:31;;;;;;;2.50;1.20;;;22.60;48.40;;;;;;5091540;28;20413;-65
2022/05/29 00:44:14;;;;;;;2.60;1.33;;;22.60;48.30;;;;;;5091365;28;20410;-65
2022/05/29 00:46:45;;;;;;;3.33;1.27;;;22.60;48.50;;;;;;5091896;28;20385;-65
2022/05/29 00:49:12;;;;;;;2.83;1.33;;;22.60;48.50;;;;;;5091515;28;20393;-65
2022/05/29 00:51:45;;;;;;;2.95;1.40;;;22.50;48.30;;;;;;5091588;28;20747;-66
2022/05/29 00:54:12;;;;;;;2.80;1.42;;;22.50;48.50;;;;;;5090750;28;20394;-65
2022/05/29 00:56:39;;;;;;;2.55;1.58;;;22.50;48.20;;;;;;5091847;28;20390;-65
2022/05/29 00:59:10;;;;;;;2.50;1.42;;;22.50;48.50;;;;;;5091516;28;20720;-64
2022/05/29 01:01:36;;;;;;;2.83;1.40;;;22.50;48.70;;;;;;5091737;28;20383;-65
2022/05/29 01:04:02;;;;;;;2.80;1.58;;;22.50;48.70;;;;;;5091663;28;20417;-65
2022/05/29 01:06:28;;;;;;;3.03;1.43;;;22.50;48.80;;;;;;5091605;28;20386;-65
2022/05/29 01:08:58;;;;;;;3.40;1.30;;;22.50;49.00;;;;;;5091624;28;20743;-65
2022/05/29 01:11:37;;;;;;;1.88;1.27;;;22.50;48.70;;;;;;5091066;28;20867;-65
2022/05/29 01:14:38;;;;;;;1.90;1.20;;;22.50;48.70;;;;;;5089827;28;20413;-65
2022/05/29 01:17:22;;;;;;;2.57;1.30;;;22.50;48.80;;;;;;5090031;28;20740;-65
2022/05/29 01:19:47;;;;;;;2.70;1.30;;;22.50;48.50;;;;;;5090163;28;20759;-65
2022/05/29 01:22:48;;;;;;;3.13;1.50;;;22.50;48.40;;;;;;5091498;28;20375;-65
2022/05/29 01:25:47;;;;;;;2.72;1.50;;;22.50;48.40;;;;;;5091026;28;20382;-65
2022/05/29 01:28:33;;;;;;;1.80;1.30;;;22.50;48.20;;;;;;5091502;28;20378;-65
2022/05/29 01:31:27;;;;;;;2.20;1.33;;;22.40;48.20;;;;;;5090004;28;20382;-65
2022/05/29 01:34:20;;;;;;;2.50;1.23;;;22.40;48.20;;;;;;5074047;28;20390;-65
2022/05/29 01:37:09;;;;;;;2.33;1.50;;;22.40;47.90;;;;;;5091154;28;20397;-65
2022/05/29 01:39:58;;;;;;;2.22;1.40;;;22.40;47.90;;;;;;5091153;28;20421;-65
2022/05/29 01:42:50;;;;;;;2.70;1.42;;;22.40;48.20;;;;;;5077069;28;20444;-65
2022/05/29 01:45:25;;;;;;;2.70;1.30;;;22.40;48.40;;;;;;5090016;28;20393;-64
2022/05/29 01:48:15;;;;;;;2.20;1.27;;;22.40;48.60;;;;;;5095191;28;20704;-65
2022/05/29 01:50:48;;;;;;;1.77;1.42;;;22.40;48.50;;;;;;5095206;28;20394;-65
2022/05/29 01:53:19;;;;;;;2.75;1.40;;;22.40;48.50;;;;;;5094682;28;20478;-65
2022/05/29 01:55:53;;;;;;;2.77;1.50;;;22.40;48.40;;;;;;5093824;28;20504;-65
2022/05/29 01:58:38;;;;;;;3.50;1.50;;;22.40;48.20;;;;;;5093545;28;20392;-65
2022/05/29 02:01:06;;;;;;;3.23;1.40;;;22.30;47.90;;;;;;5094834;28;20382;-65
2022/05/29 02:03:37;;;;;;;2.20;1.50;;;22.30;47.80;;;;;;5094738;28;20438;-65
2022/05/29 02:07:47;;;;;;;1.88;1.27;;;22.30;48.00;;;;;;5093625;28;20473;-65
2022/05/29 02:09:15;;;;;;;1.60;1.13;;;22.30;47.90;;;;;;5094302;28;20450;-65
2022/05/29 02:11:41;;;;;;;2.92;1.40;;;22.30;48.00;;;;;;5093593;28;20473;-65
2022/05/29 02:14:14;;;;;;;2.78;1.40;;;22.30;47.90;;;;;;5094434;28;20528;-65
2022/05/29 02:17:12;;;;;;;3.03;1.50;;;22.30;48.00;;;;;;5094213;28;20410;-65
2022/05/29 02:19:50;;;;;;;1.75;1.20;;;22.30;47.90;;;;;;5078671;28;20390;-65
2022/05/29 02:22:28;;;;;;;2.70;1.40;;;22.30;47.90;;;;;;5094674;28;20479;-65
2022/05/29 02:25:10;;;;;;;1.80;1.30;;;22.30;47.90;;;;;;5094485;28;20462;-65
2022/05/29 02:27:43;;;;;;;2.90;1.40;;;22.30;47.80;;;;;;5094071;28;20387;-65
2022/05/29 02:30:09;;;;;;;2.90;1.42;;;22.30;48.00;;;;;;5093193;28;20455;-65
2022/05/29 02:32:52;;;;;;;2.13;1.40;;;22.30;48.20;;;;;;5093277;28;20390;-65
2022/05/29 02:35:43;;;;;;;2.60;1.40;;;22.30;48.20;;;;;;5094053;28;20390;-64
2022/05/29 02:38:18;;;;;;;1.75;1.20;;;22.30;48.10;;;;;;5083228;28;20865;-65
2022/05/29 02:41:13;;;;;;;1.80;1.40;;;22.30;48.20;;;;;;5094267;28;20484;-65
2022/05/29 02:43:49;;;;;;;2.70;1.30;;;22.30;48.10;;;;;;5079587;28;20409;-65
2022/05/29 02:46:27;;;;;;;3.17;1.13;;;22.20;48.00;;;;;;5094045;28;20401;-65
2022/05/29 02:49:18;;;;;;;1.67;1.27;;;22.20;48.20;;;;;;5092806;28;20425;-65
2022/05/29 02:51:58;;;;;;;1.48;1.20;;;22.20;48.00;;;;;;5093912;28;20402;-65
2022/05/29 02:54:28;;;;;;;1.73;1.23;;;22.20;48.10;;;;;;5092767;28;20400;-65
2022/05/29 02:56:57;;;;;;;2.10;1.30;;;22.20;48.00;;;;;;5091023;28;20425;-65
2022/05/29 02:59:47;;;;;;;2.60;1.33;;;22.20;48.00;;;;;;5093364;28;20386;-65
2022/05/29 03:02:36;;;;;;;2.70;1.30;;;22.20;48.00;;;;;;5082610;28;20794;-65
2022/05/29 03:05:22;;;;;;;2.28;1.20;;;22.20;48.00;;;;;;5092475;28;20505;-65
2022/05/29 03:08:32;;;;;;;1.85;1.45;;;22.10;48.00;;;;;;5093737;28;20402;-65
2022/05/29 03:11:03;;;;;;;2.55;1.30;;;22.20;47.90;;;;;;5093622;28;20868;-65
2022/05/29 03:13:50;;;;;;;2.90;1.60;;;22.20;48.00;;;;;;5093232;28;20421;-65
2022/05/29 03:16:40;;;;;;;2.30;1.30;;;22.10;48.00;;;;;;5092277;28;20763;-65
2022/05/29 03:19:13;;;;;;;2.55;1.45;;;22.20;48.20;;;;;;5093528;28;20382;-65
2022/05/29 03:21:57;;;;;;;2.33;1.50;;;22.10;48.30;;;;;;5091997;28;20553;-65
2022/05/29 03:24:45;;;;;;;2.20;1.15;;;22.10;48.40;;;;;;5093390;28;20406;-65
2022/05/29 03:27:30;;;;;;;2.70;1.10;;;22.10;48.20;;;;;;5093166;28;20374;-65
2022/05/29 03:30:26;;;;;;;2.05;1.30;;;22.10;48.20;;;;;;5091993;28;20412;-65
2022/05/29 03:32:57;;;;;;;2.97;1.42;;;22.10;48.20;;;;;;5091381;28;20386;-64
2022/05/29 03:35:41;;;;;;;2.58;1.63;;;22.10;48.20;;;;;;5091221;28;20386;-64
2022/05/29 03:38:06;;;;;;;2.77;1.53;;;22.10;48.00;;;;;;5091848;28;20379;-65
2022/05/29 03:40:34;;;;;;;2.10;1.40;;;22.10;47.90;;;;;;5091849;28;20477;-65
2022/05/29 03:43:00;;;;;;;2.40;1.40;;;22.10;47.90;;;;;;5092995;28;20374;-65
2022/05/29 03:45:27;;;;;;;2.17;1.40;;;22.10;48.00;;;;;;5092611;28;20409;-65
2022/05/29 03:47:53;;;;;;;2.22;1.35;;;22.10;47.90;;;;;;5091702;28;20389;-65
2022/05/29 03:50:21;;;;;;;2.35;1.40;;;22.00;47.90;;;;;;5091696;28;20402;-65
2022/05/29 03:52:47;;;;;;;2.10;1.52;;;22.00;48.00;;;;;;5091322;28;20402;-65
2022/05/29 03:55:14;;;;;;;2.03;1.20;;;22.10;48.00;;;;;;5092747;28;20382;-65
2022/05/29 03:57:40;;;;;;;2.13;1.30;;;22.00;48.00;;;;;;5092487;28;20370;-65
2022/05/29 04:00:09;;;;;;;2.93;1.40;;;22.00;48.10;;;;;;5092777;28;20915;-65
2022/05/29 04:02:35;;;;;;;1.98;1.40;;;22.00;48.20;;;;;;5092354;28;20397;-65
2022/05/29 04:05:01;;;;;;;2.20;1.40;;;22.00;48.40;;;;;;5092517;28;20410;-65
2022/05/29 04:12:57;;;;;;;2.45;1.30;;;22.00;48.40;;;;;;5092739;28;20385;-65
2022/05/29 04:15:23;;;;;;;1.70;1.20;;;22.00;48.50;;;;;;5090769;28;20490;-65
2022/05/29 04:17:49;;;;;;;2.10;1.27;;;22.00;48.20;;;;;;5092073;28;20382;-65
2022/05/29 04:20:15;;;;;;;2.47;1.38;;;22.00;48.20;;;;;;5092364;28;20390;-65
2022/05/29 04:22:40;;;;;;;3.17;1.40;;;22.00;48.20;;;;;;5092422;28;20393;-65
2022/05/29 04:25:07;;;;;;;3.22;1.40;;;22.00;48.20;;;;;;5091961;28;20462;-65
2022/05/29 04:27:32;;;;;;;2.53;1.42;;;22.00;48.00;;;;;;5090429;28;20421;-65
2022/05/29 04:29:58;;;;;;;2.70;1.20;;;22.00;48.20;;;;;;5092195;28;20870;-65
2022/05/29 04:35:09;;;;;;;4.45;1.27;;;22.00;49.70;;;;;;5092082;28;20777;-65
2022/05/29 04:37:34;;;;;;;3.70;1.60;;;22.00;50.00;;;;;;5091393;28;20754;-64
2022/05/29 04:40:00;;;;;;;3.00;1.45;;;22.00;48.90;;;;;;5092076;28;20394;-65
2022/05/29 04:42:26;;;;;;;3.30;1.63;;;22.00;49.20;;;;;;5092017;28;20382;-64
2022/05/29 04:44:51;;;;;;;6.90;4.65;;;22.00;49.10;;;;;;5090050;28;20479;-65
2022/05/29 04:47:17;;;;;;;4.67;3.20;;;22.00;50.30;;;;;;5091657;28;20382;-64
2022/05/29 04:49:43;;;;;;;4.65;2.42;;;22.00;50.00;;;;;;5089895;28;20421;-64
2022/05/29 04:52:10;;;;;;;5.67;2.33;;;22.00;49.40;;;;;;5091307;28;20477;-64
2022/05/29 04:54:39;;;;;;;3.67;1.88;;;22.00;49.20;;;;;;5091765;28;20422;-64
2022/05/29 04:57:06;;;;;;;3.95;1.80;;;22.00;49.20;;;;;;5090452;28;21096;-64
2022/05/29 04:59:32;;;;;;;2.92;2.00;;;22.00;49.00;;;;;;5091303;28;20477;-64
2022/05/29 05:01:59;;;;;;;2.85;1.80;;;22.00;48.90;;;;;;5091666;28;20393;-64
2022/05/29 05:04:25;;;;;;;3.22;1.92;;;22.00;48.90;;;;;;5091698;28;20402;-64
2022/05/29 05:06:54;;;;;;;3.65;2.00;;;22.00;49.20;;;;;;5091241;28;20439;-64
2022/05/29 05:09:20;;;;;;;4.60;1.85;;;22.00;49.60;;;;;;5090189;28;20398;-64
2022/05/29 05:11:45;;;;;;;5.70;2.28;;;22.00;50.20;;;;;;5089971;28;20420;-64
2022/05/29 05:14:11;;;;;;;6.95;2.00;;;22.00;49.50;;;;;;5091271;28;20390;-64
2022/05/29 05:16:37;;;;;;;6.63;1.90;;;21.90;49.80;;;;;;5091188;28;20530;-64
2022/05/29 05:19:03;;;;;;;4.80;2.00;;;22.00;50.20;;;;;;5090753;28;20386;-64
2022/05/29 05:21:29;;;;;;;5.13;1.70;;;22.00;49.80;;;;;;5090987;28;20385;-64
2022/05/29 05:23:55;;;;;;;5.65;1.92;;;22.00;49.70;;;;;;5091287;28;20432;-65
2022/05/29 05:26:20;;;;;;;4.60;1.90;;;21.90;50.00;;;;;;5089904;28;20485;-64
2022/05/29 05:28:46;;;;;;;4.10;1.70;;;22.00;49.80;;;;;;5090198;28;20900;-64
2022/05/29 05:31:11;;;;;;;4.03;1.57;;;22.00;50.30;;;;;;5090148;28;20389;-64
2022/05/29 05:33:37;;;;;;;6.10;1.80;;;22.00;50.20;;;;;;5090903;28;20879;-64
2022/05/29 05:36:03;;;;;;;5.50;1.63;;;22.00;50.20;;;;;;5091397;28;20476;-64
2022/05/29 05:38:30;;;;;;;5.47;1.73;;;22.00;50.20;;;;;;5091217;28;20394;-64
2022/05/29 05:40:56;;;;;;;6.32;1.90;;;22.00;49.90;;;;;;5091283;28;20417;-64
2022/05/29 05:43:22;;;;;;;6.00;1.73;;;22.00;49.80;;;;;;5091052;28;20398;-64
2022/05/29 05:45:48;;;;;;;5.90;1.80;;;22.00;50.00;;;;;;5089712;28;20398;-64
2022/05/29 05:48:15;;;;;;;4.28;1.73;;;22.00;50.70;;;;;;5091331;28;20381;-64
2022/05/29 05:50:41;;;;;;;8.43;1.77;;;22.00;50.40;;;;;;5089749;28;20390;-64
2022/05/29 05:53:07;;;;;;;7.50;1.73;;;22.00;51.00;;;;;;5089406;28;20736;-65
2022/05/29 05:55:36;;;;;;;4.93;1.70;;;21.90;50.40;;;;;;5090694;28;20397;-65
2022/05/29 05:58:02;;;;;;;6.20;1.60;;;22.00;50.50;;;;;;5090832;28;20378;-64
2022/05/29 06:00:28;;;;;;;3.83;1.50;;;21.90;50.30;;;;;;5089104;28;20527;-64
2022/05/29 06:02:54;;;;;;;3.13;1.70;;;21.90;50.30;;;;;;5089515;28;20851;-64
2022/05/29 06:05:19;;;;;;;5.67;1.80;;;21.90;50.00;;;;;;5089038;28;20402;-64
2022/05/29 06:07:45;;;;;;;3.72;1.63;;;21.90;50.10;;;;;;5088866;28;20988;-64
2022/05/29 06:10:11;;;;;;;5.17;1.83;;;21.90;50.10;;;;;;5090836;28;20379;-64
2022/05/29 06:12:37;;;;;;;3.20;1.50;;;21.90;49.80;;;;;;5090609;28;20787;-65
2022/05/29 06:15:07;;;;;;;3.55;1.60;;;21.90;49.80;;;;;;5089407;28;20381;-65
2022/05/29 06:17:33;;;;;;;2.25;1.58;;;21.90;50.20;;;;;;5086477;28;20870;-64
2022/05/29 06:19:59;;;;;;;3.80;1.77;;;21.90;49.60;;;;;;5090503;28;20388;-64
2022/05/29 06:22:25;;;;;;;2.90;1.63;;;21.90;50.10;;;;;;5090645;28;20390;-64
2022/05/29 06:24:50;;;;;;;4.32;1.67;;;21.90;50.20;;;;;;5090436;28;20416;-65
2022/05/29 06:27:16;;;;;;;4.07;1.60;;;21.90;49.80;;;;;;5090667;28;20862;-64
2022/05/29 06:29:42;;;;;;;4.30;1.70;;;21.90;50.40;;;;;;5089206;28;20491;-64
2022/05/29 06:32:12;;;;;;;3.53;1.40;;;21.80;50.00;;;;;;5093085;28;20431;-64
2022/05/29 06:34:38;;;;;;;7.72;2.00;;;21.90;50.10;;;;;;5094204;28;20897;-64
2022/05/29 06:37:06;;;;;;;10.32;1.80;;;21.90;49.90;;;;;;5094332;28;20390;-64
2022/05/29 06:39:34;;;;;;;10.23;2.10;;;21.90;49.80;;;;;;5092571;28;20394;-64
2022/05/29 06:41:59;;;;;;;6.68;1.85;;;21.90;50.00;;;;;;5094250;28;20386;-65
2022/05/29 06:44:25;;;;;;;9.23;1.95;;;21.90;49.80;;;;;;5094118;28;20429;-64
2022/05/29 06:46:50;;;;;;;6.13;1.70;;;21.90;49.60;;;;;;5092823;28;20758;-65
2022/05/29 06:49:17;;;;;;;5.53;1.58;;;21.90;49.60;;;;;;5092887;28;20386;-65
2022/05/29 06:51:43;;;;;;;5.45;2.00;;;21.80;49.20;;;;;;5093531;28;20738;-64
2022/05/29 06:54:09;;;;;;;4.13;1.52;;;21.80;50.10;;;;;;5094158;28;20912;-64
2022/05/29 06:56:34;;;;;;;4.53;1.40;;;21.80;49.20;;;;;;5093944;28;20374;-65
2022/05/29 06:59:01;;;;;;;5.95;1.67;;;21.80;49.30;;;;;;5094079;28;20928;-65
2022/05/29 07:07:14;;;;;;;3.28;1.30;;;21.80;49.10;;;;;;5104388;28;20384;-65
2022/05/29 07:09:40;;;;;;;3.33;1.50;;;21.80;49.20;;;;;;5102043;28;20868;-65
2022/05/29 07:12:11;;;;;;;3.08;1.35;;;21.80;49.00;;;;;;5096381;28;20389;-65
2022/05/29 07:14:40;;;;;;;3.42;1.67;;;21.80;49.00;;;;;;5091857;28;20431;-65
2022/05/29 07:17:06;;;;;;;3.80;1.70;;;21.80;49.00;;;;;;5093505;28;20397;-65
2022/05/29 07:19:34;;;;;;;2.20;1.20;;;21.80;48.90;;;;;;5091866;28;20382;-65
2022/05/29 07:22:00;;;;;;;2.38;1.40;;;21.80;49.00;;;;;;5093597;28;20745;-64
2022/05/29 07:24:27;;;;;;;3.10;1.63;;;21.80;48.80;;;;;;5092078;28;20959;-64
2022/05/29 07:26:53;;;;;;;2.30;1.42;;;21.70;48.90;;;;;;5092239;28;20870;-64
2022/05/29 07:29:20;;;;;;;2.05;1.30;;;21.80;48.70;;;;;;5093229;28;20398;-65
2022/05/29 07:31:46;;;;;;;2.83;1.50;;;21.70;48.70;;;;;;5093062;28;20386;-65
2022/05/29 07:34:12;;;;;;;3.47;1.50;;;21.80;48.80;;;;;;5088560;28;20621;-64
2022/05/29 07:36:38;;;;;;;2.45;1.60;;;21.70;48.70;;;;;;5091276;28;20751;-65
2022/05/29 07:39:06;;;;;;;2.10;1.52;;;21.70;48.60;;;;;;5093107;28;20418;-65
2022/05/29 07:44:16;;;;;;;2.42;1.23;;;21.70;48.60;;;;;;5093019;28;20457;-65
2022/05/29 07:46:42;;;;;;;2.65;1.50;;;21.70;48.60;;;;;;5092930;28;20418;-64
2022/05/29 07:49:08;;;;;;;2.40;1.40;;;21.70;48.50;;;;;;5092978;28;20477;-64
2022/05/29 07:51:34;;;;;;;2.65;1.33;;;21.70;48.60;;;;;;5090604;28;20398;-64
2022/05/29 07:54:00;;;;;;;1.80;1.20;;;21.70;48.50;;;;;;5091670;28;20398;-64
2022/05/29 07:56:26;;;;;;;2.08;1.40;;;21.70;48.40;;;;;;5092683;28;20468;-64
2022/05/29 07:58:52;;;;;;;3.13;1.60;;;21.70;48.40;;;;;;5092844;28;20390;-65
2022/05/29 08:01:19;;;;;;;3.10;1.45;;;21.70;48.50;;;;;;5091368;28;20386;-64
2022/05/29 08:03:46;;;;;;;1.75;1.30;;;21.70;48.40;;;;;;5091815;28;20785;-64
2022/05/29 08:06:13;;;;;;;2.22;1.50;;;21.70;48.40;;;;;;5092331;28;20389;-65
2022/05/29 08:08:39;;;;;;;2.50;1.50;;;21.70;48.40;;;;;;5092584;28;20379;-65
2022/05/29 08:11:05;;;;;;;1.77;1.38;;;21.70;48.40;;;;;;5091012;28;20897;-65
2022/05/29 08:13:33;;;;;;;1.85;1.42;;;21.70;48.50;;;;;;5090862;28;20524;-65
2022/05/29 08:15:59;;;;;;;2.38;1.60;;;21.70;48.50;;;;;;5092221;28;20417;-65
2022/05/29 08:18:25;;;;;;;2.00;1.53;;;21.70;48.40;;;;;;5092340;28;20417;-64
2022/05/29 08:20:52;;;;;;;3.03;1.70;;;21.70;48.40;;;;;;5092095;28;20866;-64
2022/05/29 08:23:18;;;;;;;2.88;1.42;;;21.70;48.40;;;;;;5092234;28;20418;-64
2022/05/29 08:31:12;;;;;;;12.63;2.10;;;21.70;47.80;;;;;;5091942;28;20398;-64
2022/05/29 08:33:39;;;;;;;9.18;2.22;;;21.70;47.80;;;;;;5091424;28;20382;-64
2022/05/29 08:36:08;;;;;;;8.13;2.35;;;21.60;46.90;;;;;;5090373;28;20424;-64
2022/05/29 08:38:36;;;;;;;9.25;2.33;;;21.60;46.90;;;;;;5090614;28;20443;-64
2022/05/29 08:41:06;;;;;;;9.63;2.73;;;21.60;47.10;;;;;;5091814;28;20390;-64
2022/05/29 08:43:43;;;;;;;8.32;2.50;;;21.60;47.60;;;;;;5091604;28;20402;-64
2022/05/29 08:46:18;;;;;;;6.03;2.22;;;21.70;47.70;;;;;;5091546;28;20449;-64
2022/05/29 08:48:45;;;;;;;7.28;2.50;;;21.70;47.60;;;;;;5091674;28;20727;-64
2022/05/29 08:51:49;;;;;;;9.07;2.70;;;21.70;47.80;;;;;;5091538;28;20405;-65
2022/05/29 08:54:23;;;;;;;5.78;2.20;;;21.70;49.50;;;;;;5090596;28;20409;-64
2022/05/29 08:57:09;;;;;;;6.93;2.40;;;21.80;49.30;;;;;;5091678;28;20381;-65
2022/05/29 08:59:44;;;;;;;9.90;2.50;;;21.80;49.20;;;;;;5090661;28;20460;-64
2022/05/29 09:02:22;;;;;;;10.70;2.38;;;21.80;49.20;;;;;;5090400;28;20379;-65
2022/05/29 09:05:00;;;;;;;7.13;2.30;;;21.80;49.20;;;;;;5090981;28;20420;-64
2022/05/29 09:07:28;;;;;;;5.50;2.10;;;21.90;49.10;;;;;;5088170;28;20390;-64
2022/05/29 09:10:04;;;;;;;10.15;2.33;;;21.80;48.30;;;;;;5090264;28;20394;-65
2022/05/29 09:12:39;;;;;;;7.57;2.30;;;21.80;49.40;;;;;;5089094;28;20386;-65
2022/05/29 09:15:14;;;;;;;9.75;2.50;;;21.80;49.30;;;;;;5071118;28;20383;-64
2022/05/29 09:17:48;;;;;;;8.55;2.28;;;21.90;49.40;;;;;;5070525;28;20380;-64
2022/05/29 09:20:36;;;;;;;8.18;2.20;;;21.90;49.20;;;;;;5071153;28;20414;-63
2022/05/29 09:23:05;;;;;;;7.60;2.15;;;21.90;49.20;;;;;;5070948;28;20433;-64
2022/05/29 09:25:37;;;;;;;7.43;2.33;;;22.00;49.20;;;;;;5070975;28;20388;-64
2022/05/29 09:28:31;;;;;;;6.55;2.03;;;22.00;49.30;;;;;;5071686;28;20512;-64
2022/05/29 09:31:11;;;;;;;7.25;2.08;;;22.00;48.80;;;;;;5071404;28;20395;-64
2022/05/29 09:33:38;;;;;;;6.53;1.90;;;21.90;49.60;;;;;;5069161;28;20486;-64
2022/05/29 09:36:09;;;;;;;4.67;1.90;;;21.90;49.40;;;;;;5070869;28;20388;-64
2022/05/29 09:39:01;;;;;;;13.30;1.90;;;21.90;48.70;;;;;;5069571;28;20387;-64
2022/05/29 09:41:36;;;;;;;4.72;1.70;;;21.90;49.30;;;;;;5070854;28;20394;-64
2022/05/29 09:44:05;;;;;;;7.65;2.05;;;21.80;48.60;;;;;;5069418;28;20412;-64
2022/05/29 09:46:33;;;;;;;6.57;2.00;;;21.80;48.90;;;;;;5071002;28;20411;-64
2022/05/29 09:52:04;;;;;;;5.05;2.00;;;21.80;48.80;;;;;;5070192;28;20402;-64
2022/05/29 09:54:33;;;;;;;4.40;1.80;;;21.80;48.70;;;;;;5070821;28;20426;-64
2022/05/29 09:57:13;;;;;;;4.10;1.95;;;21.80;48.70;;;;;;5070563;28;20383;-64
2022/05/29 09:59:43;;;;;;;3.17;1.77;;;21.80;48.50;;;;;;5068920;28;20427;-64
2022/05/29 10:02:27;;;;;;;4.18;1.92;;;21.80;48.70;;;;;;5069446;28;20380;-64
2022/05/29 10:04:56;;;;;;;4.60;1.90;;;21.80;48.90;;;;;;5069216;28;20416;-65
2022/05/29 10:07:44;;;;;;;3.35;1.70;;;21.80;48.70;;;;;;5073120;28;20392;-64
2022/05/29 10:10:36;;;;;;;3.42;1.90;;;21.80;48.50;;;;;;5074296;28;20388;-64
2022/05/29 10:13:04;;;;;;;4.40;1.85;;;21.80;48.50;;;;;;5073045;28;20879;-64
2022/05/29 10:15:32;;;;;;;3.78;1.88;;;21.80;48.40;;;;;;5072115;28;20404;-64
2022/05/29 10:18:01;;;;;;;3.25;1.52;;;21.80;48.40;;;;;;5074909;28;20387;-64
2022/05/29 10:20:41;;;;;;;4.10;1.80;;;21.80;48.30;;;;;;5094423;28;20535;-64
2022/05/29 10:23:36;;;;;;;3.42;1.70;;;21.80;48.20;;;;;;5094670;28;20382;-64
2022/05/29 10:26:16;;;;;;;3.65;1.75;;;21.80;48.20;;;;;;5091296;28;20402;-65
2022/05/29 10:28:43;;;;;;;3.60;1.63;;;21.80;48.20;;;;;;5092963;28;20374;-64
2022/05/29 10:31:19;;;;;;;1.92;1.50;;;21.80;48.20;;;;;;5093283;28;20394;-64
2022/05/29 10:34:13;;;;;;;3.35;1.75;;;21.80;48.30;;;;;;5093704;28;20382;-64
2022/05/29 10:36:40;;;;;;;4.43;1.67;;;21.80;48.30;;;;;;5092855;28;20384;-64
2022/05/29 10:39:28;;;;;;;3.50;1.60;;;21.80;48.20;;;;;;5092109;28;20735;-64
2022/05/29 10:41:58;;;;;;;2.35;1.50;;;21.90;48.30;;;;;;5094342;28;20432;-64
2022/05/29 10:44:41;;;;;;;3.30;1.55;;;21.90;48.20;;;;;;5075753;28;20422;-64
2022/05/29 10:47:20;;;;;;;2.58;1.50;;;21.90;48.20;;;;;;5092573;28;20420;-64
2022/05/29 10:50:04;;;;;;;3.92;1.50;;;21.90;48.30;;;;;;5091938;28;20410;-64
2022/05/29 10:52:56;;;;;;;3.17;1.40;;;21.90;48.20;;;;;;5093582;28;20438;-65
2022/05/29 10:55:56;;;;;;;5.78;1.80;;;21.90;48.30;;;;;;5092696;28;20416;-64
2022/05/29 10:59:09;;;;;;;2.67;1.40;;;22.00;48.30;;;;;;5092702;28;20481;-64
2022/05/29 11:05:30;;;;;;;4.07;1.80;;;22.00;48.20;;;;;;5031278;28;20838;-65
2022/05/29 11:08:36;;;;;;;3.47;1.60;;;22.00;48.10;;;;;;5092183;28;20386;-64
2022/05/29 11:11:32;;;;;;;4.03;1.70;;;22.00;48.20;;;;;;5092337;28;20394;-65
2022/05/29 11:14:19;;;;;;;3.47;1.52;;;22.00;48.20;;;;;;5093417;28;20893;-64
2022/05/29 11:17:12;;;;;;;4.80;1.80;;;22.00;48.10;;;;;;5092496;28;20526;-64
2022/05/29 11:19:45;;;;;;;3.27;1.60;;;22.00;48.20;;;;;;5091910;28;20742;-64
2022/05/29 11:22:46;;;;;;;2.95;1.50;;;22.00;48.30;;;;;;5092749;28;20386;-64
2022/05/29 11:25:42;;;;;;;4.05;1.70;;;22.00;48.30;;;;;;5009844;28;20446;-64
2022/05/29 11:28:43;;;;;;;3.08;1.60;;;22.10;48.40;;;;;;5090782;28;20398;-65
2022/05/29 11:31:33;;;;;;;3.45;1.40;;;22.00;48.30;;;;;;5068139;28;20396;-65
2022/05/29 11:34:11;;;;;;;7.45;1.80;;;22.00;48.40;;;;;;5091767;28;20390;-65
2022/05/29 11:37:08;;;;;;;3.67;1.65;;;22.00;48.40;;;;;;5092981;28;20398;-65
2022/05/29 11:40:04;;;;;;;4.65;1.70;;;22.00;48.40;;;;;;5092971;28;20744;-65
2022/05/29 11:42:45;;;;;;;4.20;1.60;;;22.00;48.50;;;;;;5083345;28;20439;-65
2022/05/29 11:51:07;;;;;;;7.22;1.70;;;22.00;48.50;;;;;;5091476;28;20431;-65
2022/05/29 11:51:18;;;;;;;3.97;1.70;;;21.90;48.60;;;;;;5093054;28;20413;-65
2022/05/29 11:54:07;;;;;;;5.22;1.67;;;21.90;48.60;;;;;;5091273;28;20433;-65
2022/05/29 11:56:33;;;;;;;3.13;1.65;;;22.00;48.70;;;;;;5093151;28;20386;-66
2022/05/29 11:59:20;;;;;;;4.00;1.42;;;21.90;48.60;;;;;;5091618;28;20952;-65
2022/05/29 12:02:00;;;;;;;3.72;1.50;;;22.00;48.70;;;;;;5092262;28;20431;-65
2022/05/29 12:04:35;;;;;;;4.27;1.57;;;22.00;48.70;;;;;;5092713;28;20490;-65
2022/05/29 12:07:14;;;;;;;4.80;1.70;;;21.90;48.70;;;;;;5092791;28;20378;-65
2022/05/29 12:09:53;;;;;;;2.50;1.38;;;21.90;48.70;;;;;;5091481;28;20401;-65
2022/05/29 12:12:27;;;;;;;3.20;1.80;;;22.00;48.80;;;;;;5088182;28;20475;-65
2022/05/29 12:14:59;;;;;;;2.67;1.40;;;21.90;48.80;;;;;;5087794;28;20905;-65
2022/05/29 12:17:44;;;;;;;4.97;1.90;;;21.90;48.80;;;;;;5092618;28;20386;-65
2022/05/29 12:20:34;;;;;;;7.38;1.90;;;21.90;48.90;;;;;;5092325;28;20381;-65
2022/05/29 12:23:05;;;;;;;5.50;1.80;;;22.00;49.40;;;;;;5077163;28;20433;-65
2022/05/29 12:25:48;;;;;;;6.38;2.00;;;22.00;49.60;;;;;;5091040;28;20415;-64
2022/05/29 12:28:54;;;;;;;9.65;3.00;;;22.00;49.80;;;;;;5092251;28;20382;-65
2022/05/29 12:31:33;;;;;;;10.05;3.30;;;22.00;50.50;;;;;;5088058;28;20958;-64
2022/05/29 12:33:59;;;;;;;8.82;3.40;;;22.10;49.50;;;;;;5090399;28;20448;-64
2022/05/29 12:37:15;;;;;;;11.55;3.00;;;22.20;49.50;;;;;;5090912;28;20425;-64
2022/05/29 12:39:57;;;;;;;8.55;2.75;;;22.40;49.80;;;;;;5009873;28;20395;-64
2022/05/29 12:42:56;;;;;;;9.85;2.72;;;22.30;49.40;;;;;;4993617;28;20504;-64
2022/05/29 12:45:24;;;;;;;8.00;2.75;;;22.30;50.00;;;;;;5078633;28;20782;-64
2022/05/29 12:48:09;;;;;;;12.25;3.97;;;22.30;50.30;;;;;;5091433;28;20389;-64
2022/05/29 12:51:11;;;;;;;8.70;3.20;;;22.30;49.90;;;;;;5091815;28;20394;-64
2022/05/29 12:53:59;;;;;;;9.63;3.40;;;22.70;49.00;;;;;;5071358;28;20402;-64
2022/05/29 12:56:59;;;;;;;15.00;3.72;;;22.60;48.70;;;;;;5071640;28;20392;-64
2022/05/29 12:59:46;;;;;;;15.70;3.97;;;22.50;48.80;;;;;;5071215;28;20391;-63
2022/05/29 13:02:44;;;;;;;12.87;3.63;;;22.50;48.70;;;;;;5075788;28;20384;-63
2022/05/29 13:05:28;;;;;;;23.58;6.15;;;22.40;48.60;;;;;;5060132;28;20494;-64
2022/05/29 13:08:26;;;;;;;12.68;4.43;;;22.30;48.20;;;;;;5078696;28;20388;-63
2022/05/29 13:10:52;;;;;;;14.63;4.60;;;22.20;49.10;;;;;;5077205;28;20440;-64
2022/05/29 13:13:23;;;;;;;13.23;4.43;;;22.20;49.10;;;;;;5071340;28;20395;-64
2022/05/29 13:15:49;;;;;;;11.82;4.28;;;22.20;49.00;;;;;;5070977;28;20371;-65
2022/05/29 13:18:21;;;;;;;12.00;4.10;;;22.10;48.90;;;;;;5071318;28;20394;-64
2022/05/29 13:21:17;;;;;;;10.00;4.13;;;22.10;49.00;;;;;;5071442;28;20891;-64
2022/05/29 13:23:52;;;;;;;11.43;3.70;;;22.10;48.80;;;;;;5071000;28;20446;-64
2022/05/29 13:26:28;;;;;;;9.48;3.90;;;22.10;49.00;;;;;;5071322;28;20392;-64
2022/05/29 13:28:59;;;;;;;14.25;3.85;;;22.10;48.90;;;;;;5053330;28;20388;-64
2022/05/29 13:31:27;;;;;;;7.45;3.30;;;22.10;48.80;;;;;;5053312;28;20400;-64
2022/05/29 13:33:54;;;;;;;9.00;3.70;;;22.10;49.00;;;;;;5070768;28;20876;-64
2022/05/29 13:36:43;;;;;;;8.40;3.53;;;22.10;49.10;;;;;;5053321;28;20438;-65
2022/05/29 13:39:24;;;;;;;5.10;3.30;;;22.10;48.90;;;;;;5046154;28;20419;-64
2022/05/29 13:41:52;;;;;;;6.75;3.50;;;22.10;49.00;;;;;;5072189;28;20466;-65
2022/05/29 13:44:37;;;;;;;7.97;3.30;;;22.10;48.90;;;;;;5073046;28;20844;-65
2022/05/29 13:47:25;;;;;;;7.80;3.28;;;22.10;48.90;;;;;;5054792;28;20900;-65
2022/05/29 13:50:00;;;;;;;5.57;3.05;;;22.10;48.80;;;;;;5070403;28;20437;-64
2022/05/29 13:52:52;;;;;;;8.18;2.92;;;22.10;49.70;;;;;;5082174;28;20406;-64
2022/05/29 13:55:33;;;;;;;7.95;3.00;;;22.10;49.10;;;;;;5093686;28;20418;-64
2022/05/29 14:04:54;;;;;;;12.63;3.30;;;22.10;49.60;;;;;;5092698;28;20505;-65